sensor_id;sensor_type;location;lat;lon;timestamp;P1;durP1;ratioP1;P2;durP2;ratioP2
43509;SDS011;29105;57.764;40.952;2023-12-28T00:01:29;17.77;;;7.53;;
43509;SDS011;29105;57.764;40.952;2023-12-28T00:03:54;9.65;;;4.82;;
43509;SDS011;29105;57.764;40.952;2023-12-28T00:06:20;19.38;;;7.13;;
43509;SDS011;29105;57.764;40.952;2023-12-28T00:08:46;13.70;;;5.95;;
43509;SDS011;29105;57.764;40.952;2023-12-28T00:11:12;20.55;;;7.82;;
43509;SDS011;29105;57.764;40.952;2023-12-28T00:13:37;16.10;;;6.30;;
43509;SDS011;29105;57.764;40.952;2023-12-28T00:16:03;15.13;;;6.90;;
43509;SDS011;29105;57.764;40.952;2023-12-28T00:18:29;14.98;;;7.03;;
43509;SDS011;29105;57.764;40.952;2023-12-28T00:20:55;22.13;;;7.40;;
43509;SDS011;29105;57.764;40.952;2023-12-28T00:23:21;18.67;;;7.85;;
43509;SDS011;29105;57.764;40.952;2023-12-28T00:25:46;21.38;;;7.43;;
43509;SDS011;29105;57.764;40.952;2023-12-28T00:28:12;16.23;;;8.63;;
43509;SDS011;29105;57.764;40.952;2023-12-28T00:30:38;19.58;;;7.25;;
43509;SDS011;29105;57.764;40.952;2023-12-28T00:33:04;18.98;;;7.85;;
43509;SDS011;29105;57.764;40.952;2023-12-28T00:35:29;19.45;;;8.18;;
43509;SDS011;29105;57.764;40.952;2023-12-28T00:37:55;19.60;;;6.45;;
43509;SDS011;29105;57.764;40.952;2023-12-28T00:40:21;16.45;;;7.03;;
43509;SDS011;29105;57.764;40.952;2023-12-28T00:42:47;13.13;;;6.47;;
43509;SDS011;29105;57.764;40.952;2023-12-28T00:45:13;17.35;;;7.95;;
43509;SDS011;29105;57.764;40.952;2023-12-28T00:47:39;17.23;;;7.88;;
43509;SDS011;29105;57.764;40.952;2023-12-28T00:50:08;19.45;;;8.60;;
43509;SDS011;29105;57.764;40.952;2023-12-28T00:52:34;21.45;;;8.98;;
43509;SDS011;29105;57.764;40.952;2023-12-28T00:55:00;19.25;;;8.15;;
43509;SDS011;29105;57.764;40.952;2023-12-28T00:57:25;21.42;;;8.02;;
43509;SDS011;29105;57.764;40.952;2023-12-28T00:59:51;21.40;;;8.75;;
43509;SDS011;29105;57.764;40.952;2023-12-28T01:02:17;20.90;;;9.35;;
43509;SDS011;29105;57.764;40.952;2023-12-28T01:04:43;22.40;;;9.32;;
43509;SDS011;29105;57.764;40.952;2023-12-28T01:07:08;24.05;;;9.10;;
43509;SDS011;29105;57.764;40.952;2023-12-28T01:09:34;21.05;;;9.73;;
43509;SDS011;29105;57.764;40.952;2023-12-28T01:12:00;23.38;;;9.48;;
43509;SDS011;29105;57.764;40.952;2023-12-28T01:14:26;25.00;;;9.73;;
43509;SDS011;29105;57.764;40.952;2023-12-28T01:16:51;29.50;;;9.40;;
43509;SDS011;29105;57.764;40.952;2023-12-28T01:19:17;22.90;;;8.57;;
43509;SDS011;29105;57.764;40.952;2023-12-28T01:21:43;22.60;;;9.75;;
43509;SDS011;29105;57.764;40.952;2023-12-28T01:24:09;24.10;;;9.20;;
43509;SDS011;29105;57.764;40.952;2023-12-28T01:26:34;26.05;;;10.23;;
43509;SDS011;29105;57.764;40.952;2023-12-28T01:29:00;27.90;;;10.10;;
43509;SDS011;29105;57.764;40.952;2023-12-28T01:31:29;25.33;;;9.88;;
43509;SDS011;29105;57.764;40.952;2023-12-28T01:33:54;22.88;;;10.07;;
43509;SDS011;29105;57.764;40.952;2023-12-28T01:36:20;25.00;;;9.27;;
43509;SDS011;29105;57.764;40.952;2023-12-28T01:38:47;20.63;;;8.70;;
43509;SDS011;29105;57.764;40.952;2023-12-28T01:41:13;20.23;;;8.23;;
43509;SDS011;29105;57.764;40.952;2023-12-28T01:43:41;29.30;;;10.27;;
43509;SDS011;29105;57.764;40.952;2023-12-28T01:46:08;24.83;;;8.75;;
43509;SDS011;29105;57.764;40.952;2023-12-28T01:48:36;26.70;;;8.95;;
43509;SDS011;29105;57.764;40.952;2023-12-28T01:51:02;26.98;;;11.95;;
43509;SDS011;29105;57.764;40.952;2023-12-28T01:53:28;23.38;;;9.05;;
43509;SDS011;29105;57.764;40.952;2023-12-28T01:55:54;33.00;;;10.98;;
43509;SDS011;29105;57.764;40.952;2023-12-28T01:58:20;29.27;;;11.48;;
43509;SDS011;29105;57.764;40.952;2023-12-28T02:00:46;25.55;;;10.10;;
43509;SDS011;29105;57.764;40.952;2023-12-28T02:03:12;36.35;;;10.52;;
43509;SDS011;29105;57.764;40.952;2023-12-28T02:05:38;30.83;;;12.18;;
43509;SDS011;29105;57.764;40.952;2023-12-28T02:08:04;29.92;;;11.95;;
43509;SDS011;29105;57.764;40.952;2023-12-28T02:10:30;33.30;;;12.52;;
43509;SDS011;29105;57.764;40.952;2023-12-28T02:12:56;29.25;;;10.93;;
43509;SDS011;29105;57.764;40.952;2023-12-28T02:15:22;29.20;;;10.93;;
43509;SDS011;29105;57.764;40.952;2023-12-28T02:17:56;29.13;;;11.10;;
43509;SDS011;29105;57.764;40.952;2023-12-28T02:20:43;37.75;;;11.85;;
43509;SDS011;29105;57.764;40.952;2023-12-28T02:23:09;20.85;;;9.05;;
43509;SDS011;29105;57.764;40.952;2023-12-28T02:25:35;31.15;;;10.18;;
43509;SDS011;29105;57.764;40.952;2023-12-28T02:28:01;18.40;;;7.30;;
43509;SDS011;29105;57.764;40.952;2023-12-28T02:30:27;21.75;;;8.38;;
43509;SDS011;29105;57.764;40.952;2023-12-28T02:35:25;18.20;;;6.82;;
43509;SDS011;29105;57.764;40.952;2023-12-28T02:38:10;20.20;;;6.65;;
43509;SDS011;29105;57.764;40.952;2023-12-28T02:40:42;22.67;;;7.97;;
43509;SDS011;29105;57.764;40.952;2023-12-28T02:43:11;26.10;;;10.00;;
43509;SDS011;29105;57.764;40.952;2023-12-28T02:45:37;26.15;;;8.18;;
43509;SDS011;29105;57.764;40.952;2023-12-28T02:48:04;25.42;;;9.50;;
43509;SDS011;29105;57.764;40.952;2023-12-28T02:50:30;26.08;;;8.63;;
43509;SDS011;29105;57.764;40.952;2023-12-28T02:52:57;31.13;;;11.27;;
43509;SDS011;29105;57.764;40.952;2023-12-28T02:55:23;24.90;;;10.15;;
43509;SDS011;29105;57.764;40.952;2023-12-28T02:57:49;26.13;;;10.27;;
43509;SDS011;29105;57.764;40.952;2023-12-28T03:00:15;24.00;;;9.55;;
43509;SDS011;29105;57.764;40.952;2023-12-28T03:02:41;27.75;;;10.57;;
43509;SDS011;29105;57.764;40.952;2023-12-28T03:05:07;26.55;;;9.27;;
43509;SDS011;29105;57.764;40.952;2023-12-28T03:07:33;23.00;;;10.95;;
43509;SDS011;29105;57.764;40.952;2023-12-28T03:09:59;27.65;;;9.55;;
43509;SDS011;29105;57.764;40.952;2023-12-28T03:12:25;28.27;;;11.05;;
43509;SDS011;29105;57.764;40.952;2023-12-28T03:14:52;32.65;;;11.35;;
43509;SDS011;29105;57.764;40.952;2023-12-28T03:17:17;26.85;;;10.02;;
43509;SDS011;29105;57.764;40.952;2023-12-28T03:19:43;30.08;;;10.05;;
43509;SDS011;29105;57.764;40.952;2023-12-28T03:22:09;26.58;;;7.22;;
43509;SDS011;29105;57.764;40.952;2023-12-28T03:24:36;32.83;;;12.10;;
43509;SDS011;29105;57.764;40.952;2023-12-28T03:27:02;29.38;;;10.70;;
43509;SDS011;29105;57.764;40.952;2023-12-28T03:29:29;25.67;;;9.23;;
43509;SDS011;29105;57.764;40.952;2023-12-28T03:31:54;31.83;;;10.85;;
43509;SDS011;29105;57.764;40.952;2023-12-28T03:34:20;31.90;;;10.10;;
43509;SDS011;29105;57.764;40.952;2023-12-28T03:36:48;12.40;;;5.55;;
43509;SDS011;29105;57.764;40.952;2023-12-28T03:39:14;17.13;;;6.10;;
43509;SDS011;29105;57.764;40.952;2023-12-28T03:41:40;27.35;;;11.18;;
43509;SDS011;29105;57.764;40.952;2023-12-28T03:44:05;35.05;;;11.05;;
43509;SDS011;29105;57.764;40.952;2023-12-28T03:46:31;39.97;;;12.20;;
43509;SDS011;29105;57.764;40.952;2023-12-28T03:48:57;26.05;;;10.80;;
43509;SDS011;29105;57.764;40.952;2023-12-28T03:51:23;27.73;;;9.13;;
43509;SDS011;29105;57.764;40.952;2023-12-28T03:53:48;33.97;;;10.48;;
43509;SDS011;29105;57.764;40.952;2023-12-28T03:56:18;33.20;;;10.05;;
43509;SDS011;29105;57.764;40.952;2023-12-28T03:58:47;37.85;;;11.98;;
43509;SDS011;29105;57.764;40.952;2023-12-28T04:01:13;33.80;;;10.82;;
43509;SDS011;29105;57.764;40.952;2023-12-28T04:03:39;37.75;;;11.77;;
43509;SDS011;29105;57.764;40.952;2023-12-28T04:06:05;49.58;;;15.48;;
43509;SDS011;29105;57.764;40.952;2023-12-28T04:08:30;30.02;;;10.60;;
43509;SDS011;29105;57.764;40.952;2023-12-28T04:10:57;40.20;;;14.43;;
43509;SDS011;29105;57.764;40.952;2023-12-28T04:13:23;41.60;;;13.50;;
43509;SDS011;29105;57.764;40.952;2023-12-28T04:15:48;58.17;;;16.13;;
43509;SDS011;29105;57.764;40.952;2023-12-28T04:18:14;48.15;;;14.70;;
43509;SDS011;29105;57.764;40.952;2023-12-28T04:20:42;50.30;;;16.17;;
43509;SDS011;29105;57.764;40.952;2023-12-28T04:23:09;57.50;;;16.85;;
43509;SDS011;29105;57.764;40.952;2023-12-28T04:25:35;50.03;;;17.05;;
43509;SDS011;29105;57.764;40.952;2023-12-28T04:28:01;44.97;;;14.18;;
43509;SDS011;29105;57.764;40.952;2023-12-28T04:30:27;61.60;;;17.83;;
43509;SDS011;29105;57.764;40.952;2023-12-28T04:32:53;49.45;;;16.25;;
43509;SDS011;29105;57.764;40.952;2023-12-28T04:35:19;47.42;;;15.82;;
43509;SDS011;29105;57.764;40.952;2023-12-28T04:37:44;56.00;;;17.17;;
43509;SDS011;29105;57.764;40.952;2023-12-28T04:40:10;53.35;;;15.60;;
43509;SDS011;29105;57.764;40.952;2023-12-28T04:42:36;43.55;;;14.38;;
43509;SDS011;29105;57.764;40.952;2023-12-28T04:45:02;44.58;;;14.80;;
43509;SDS011;29105;57.764;40.952;2023-12-28T04:47:28;42.15;;;13.73;;
43509;SDS011;29105;57.764;40.952;2023-12-28T04:49:54;43.60;;;13.63;;
43509;SDS011;29105;57.764;40.952;2023-12-28T04:52:20;49.00;;;17.60;;
43509;SDS011;29105;57.764;40.952;2023-12-28T04:54:45;48.42;;;17.08;;
43509;SDS011;29105;57.764;40.952;2023-12-28T04:57:11;50.30;;;15.55;;
43509;SDS011;29105;57.764;40.952;2023-12-28T04:59:38;43.25;;;15.55;;
43509;SDS011;29105;57.764;40.952;2023-12-28T05:02:04;45.75;;;16.13;;
43509;SDS011;29105;57.764;40.952;2023-12-28T05:04:30;46.30;;;15.18;;
43509;SDS011;29105;57.764;40.952;2023-12-28T05:06:55;43.47;;;15.00;;
43509;SDS011;29105;57.764;40.952;2023-12-28T05:09:21;58.55;;;16.10;;
43509;SDS011;29105;57.764;40.952;2023-12-28T05:11:47;60.15;;;17.33;;
43509;SDS011;29105;57.764;40.952;2023-12-28T05:14:13;45.38;;;17.58;;
43509;SDS011;29105;57.764;40.952;2023-12-28T05:16:38;42.88;;;13.73;;
43509;SDS011;29105;57.764;40.952;2023-12-28T05:19:06;32.35;;;9.93;;
43509;SDS011;29105;57.764;40.952;2023-12-28T05:21:31;31.27;;;10.77;;
43509;SDS011;29105;57.764;40.952;2023-12-28T05:23:57;26.98;;;8.77;;
43509;SDS011;29105;57.764;40.952;2023-12-28T05:26:23;29.55;;;10.25;;
43509;SDS011;29105;57.764;40.952;2023-12-28T05:28:49;19.98;;;8.63;;
43509;SDS011;29105;57.764;40.952;2023-12-28T05:31:15;17.08;;;6.75;;
43509;SDS011;29105;57.764;40.952;2023-12-28T05:33:40;18.67;;;8.65;;
43509;SDS011;29105;57.764;40.952;2023-12-28T05:36:06;20.63;;;7.93;;
43509;SDS011;29105;57.764;40.952;2023-12-28T05:38:34;19.38;;;5.70;;
43509;SDS011;29105;57.764;40.952;2023-12-28T05:40:59;22.65;;;6.25;;
43509;SDS011;29105;57.764;40.952;2023-12-28T05:43:25;28.08;;;9.35;;
43509;SDS011;29105;57.764;40.952;2023-12-28T05:45:51;23.77;;;8.27;;
43509;SDS011;29105;57.764;40.952;2023-12-28T05:48:17;12.80;;;6.72;;
43509;SDS011;29105;57.764;40.952;2023-12-28T05:50:42;16.42;;;6.43;;
43509;SDS011;29105;57.764;40.952;2023-12-28T05:53:08;12.45;;;4.65;;
43509;SDS011;29105;57.764;40.952;2023-12-28T05:55:42;18.42;;;6.55;;
43509;SDS011;29105;57.764;40.952;2023-12-28T05:58:09;18.10;;;6.72;;
43509;SDS011;29105;57.764;40.952;2023-12-28T06:00:35;16.77;;;6.45;;
43509;SDS011;29105;57.764;40.952;2023-12-28T06:03:04;25.55;;;8.52;;
43509;SDS011;29105;57.764;40.952;2023-12-28T06:05:30;18.70;;;7.03;;
43509;SDS011;29105;57.764;40.952;2023-12-28T06:07:57;24.60;;;6.65;;
43509;SDS011;29105;57.764;40.952;2023-12-28T06:10:23;16.33;;;5.72;;
43509;SDS011;29105;57.764;40.952;2023-12-28T06:12:50;24.80;;;8.07;;
43509;SDS011;29105;57.764;40.952;2023-12-28T06:15:16;17.70;;;8.10;;
43509;SDS011;29105;57.764;40.952;2023-12-28T06:17:42;24.52;;;7.93;;
43509;SDS011;29105;57.764;40.952;2023-12-28T06:20:08;10.27;;;4.20;;
43509;SDS011;29105;57.764;40.952;2023-12-28T06:22:37;19.10;;;7.93;;
43509;SDS011;29105;57.764;40.952;2023-12-28T06:25:03;12.25;;;5.13;;
43509;SDS011;29105;57.764;40.952;2023-12-28T06:27:31;17.60;;;6.88;;
43509;SDS011;29105;57.764;40.952;2023-12-28T06:29:57;18.60;;;5.93;;
43509;SDS011;29105;57.764;40.952;2023-12-28T06:32:23;16.27;;;6.63;;
43509;SDS011;29105;57.764;40.952;2023-12-28T06:34:49;13.68;;;6.18;;
43509;SDS011;29105;57.764;40.952;2023-12-28T06:37:15;17.23;;;6.18;;
43509;SDS011;29105;57.764;40.952;2023-12-28T06:39:41;18.85;;;6.53;;
43509;SDS011;29105;57.764;40.952;2023-12-28T06:42:06;16.52;;;6.28;;
43509;SDS011;29105;57.764;40.952;2023-12-28T06:44:32;17.13;;;7.93;;
43509;SDS011;29105;57.764;40.952;2023-12-28T06:46:58;21.95;;;6.78;;
43509;SDS011;29105;57.764;40.952;2023-12-28T06:49:24;13.05;;;6.57;;
43509;SDS011;29105;57.764;40.952;2023-12-28T06:51:51;16.70;;;7.45;;
43509;SDS011;29105;57.764;40.952;2023-12-28T06:54:17;16.30;;;6.63;;
43509;SDS011;29105;57.764;40.952;2023-12-28T06:56:43;19.33;;;7.85;;
43509;SDS011;29105;57.764;40.952;2023-12-28T06:59:09;20.60;;;8.13;;
43509;SDS011;29105;57.764;40.952;2023-12-28T07:01:38;27.98;;;8.73;;
43509;SDS011;29105;57.764;40.952;2023-12-28T07:04:04;24.40;;;9.55;;
43509;SDS011;29105;57.764;40.952;2023-12-28T07:06:30;20.95;;;8.13;;
43509;SDS011;29105;57.764;40.952;2023-12-28T07:08:56;21.70;;;7.70;;
43509;SDS011;29105;57.764;40.952;2023-12-28T07:11:22;25.15;;;7.47;;
43509;SDS011;29105;57.764;40.952;2023-12-28T07:13:48;15.50;;;7.18;;
43509;SDS011;29105;57.764;40.952;2023-12-28T07:16:14;17.95;;;7.43;;
43509;SDS011;29105;57.764;40.952;2023-12-28T07:18:41;26.38;;;9.43;;
43509;SDS011;29105;57.764;40.952;2023-12-28T07:21:07;17.85;;;7.15;;
43509;SDS011;29105;57.764;40.952;2023-12-28T07:23:36;24.75;;;8.82;;
43509;SDS011;29105;57.764;40.952;2023-12-28T07:26:03;23.25;;;7.68;;
43509;SDS011;29105;57.764;40.952;2023-12-28T07:28:29;25.40;;;8.80;;
43509;SDS011;29105;57.764;40.952;2023-12-28T07:30:54;20.08;;;7.53;;
43509;SDS011;29105;57.764;40.952;2023-12-28T07:33:20;16.73;;;6.72;;
43509;SDS011;29105;57.764;40.952;2023-12-28T07:35:46;18.95;;;7.88;;
43509;SDS011;29105;57.764;40.952;2023-12-28T07:38:12;23.60;;;8.30;;
43509;SDS011;29105;57.764;40.952;2023-12-28T07:40:38;25.58;;;8.60;;
43509;SDS011;29105;57.764;40.952;2023-12-28T07:43:03;23.70;;;7.40;;
43509;SDS011;29105;57.764;40.952;2023-12-28T07:45:29;17.30;;;6.30;;
43509;SDS011;29105;57.764;40.952;2023-12-28T07:47:55;21.52;;;7.43;;
43509;SDS011;29105;57.764;40.952;2023-12-28T07:50:21;24.42;;;7.88;;
43509;SDS011;29105;57.764;40.952;2023-12-28T07:52:48;25.42;;;8.93;;
43509;SDS011;29105;57.764;40.952;2023-12-28T07:55:14;17.98;;;7.35;;
43509;SDS011;29105;57.764;40.952;2023-12-28T07:57:40;20.23;;;6.95;;
43509;SDS011;29105;57.764;40.952;2023-12-28T08:00:06;14.18;;;6.70;;
43509;SDS011;29105;57.764;40.952;2023-12-28T08:02:32;15.68;;;4.90;;
43509;SDS011;29105;57.764;40.952;2023-12-28T08:04:58;19.63;;;7.22;;
43509;SDS011;29105;57.764;40.952;2023-12-28T08:07:24;12.93;;;4.90;;
43509;SDS011;29105;57.764;40.952;2023-12-28T08:09:50;20.23;;;7.78;;
43509;SDS011;29105;57.764;40.952;2023-12-28T08:12:15;25.02;;;8.32;;
43509;SDS011;29105;57.764;40.952;2023-12-28T08:14:42;24.75;;;7.88;;
43509;SDS011;29105;57.764;40.952;2023-12-28T08:17:08;16.85;;;5.65;;
43509;SDS011;29105;57.764;40.952;2023-12-28T08:19:34;15.95;;;5.82;;
43509;SDS011;29105;57.764;40.952;2023-12-28T08:22:00;25.30;;;7.93;;
43509;SDS011;29105;57.764;40.952;2023-12-28T08:24:26;24.15;;;8.00;;
43509;SDS011;29105;57.764;40.952;2023-12-28T08:26:52;13.18;;;4.72;;
43509;SDS011;29105;57.764;40.952;2023-12-28T08:29:18;17.23;;;5.45;;
43509;SDS011;29105;57.764;40.952;2023-12-28T08:31:44;18.45;;;5.82;;
43509;SDS011;29105;57.764;40.952;2023-12-28T08:34:10;26.42;;;8.82;;
43509;SDS011;29105;57.764;40.952;2023-12-28T08:36:35;16.33;;;5.43;;
43509;SDS011;29105;57.764;40.952;2023-12-28T08:39:01;28.40;;;8.27;;
43509;SDS011;29105;57.764;40.952;2023-12-28T08:41:27;23.15;;;7.80;;
43509;SDS011;29105;57.764;40.952;2023-12-28T08:43:53;22.20;;;8.50;;
43509;SDS011;29105;57.764;40.952;2023-12-28T08:46:22;36.90;;;9.30;;
43509;SDS011;29105;57.764;40.952;2023-12-28T08:48:51;24.70;;;8.15;;
43509;SDS011;29105;57.764;40.952;2023-12-28T08:51:16;26.23;;;8.35;;
43509;SDS011;29105;57.764;40.952;2023-12-28T08:53:42;34.70;;;8.00;;
43509;SDS011;29105;57.764;40.952;2023-12-28T08:56:18;24.30;;;7.28;;
43509;SDS011;29105;57.764;40.952;2023-12-28T08:58:45;35.70;;;9.70;;
43509;SDS011;29105;57.764;40.952;2023-12-28T09:01:16;20.52;;;7.68;;
43509;SDS011;29105;57.764;40.952;2023-12-28T09:03:43;19.35;;;7.47;;
43509;SDS011;29105;57.764;40.952;2023-12-28T09:06:09;26.83;;;9.00;;
43509;SDS011;29105;57.764;40.952;2023-12-28T09:08:35;37.20;;;9.70;;
43509;SDS011;29105;57.764;40.952;2023-12-28T09:11:01;36.78;;;8.23;;
43509;SDS011;29105;57.764;40.952;2023-12-28T09:13:26;21.73;;;7.60;;
43509;SDS011;29105;57.764;40.952;2023-12-28T09:15:52;22.98;;;8.50;;
43509;SDS011;29105;57.764;40.952;2023-12-28T09:18:18;19.70;;;5.97;;
43509;SDS011;29105;57.764;40.952;2023-12-28T09:20:44;20.73;;;7.30;;
43509;SDS011;29105;57.764;40.952;2023-12-28T09:23:10;22.27;;;8.05;;
43509;SDS011;29105;57.764;40.952;2023-12-28T09:25:36;22.73;;;7.50;;
43509;SDS011;29105;57.764;40.952;2023-12-28T09:28:04;25.85;;;7.75;;
43509;SDS011;29105;57.764;40.952;2023-12-28T09:30:30;28.38;;;8.65;;
43509;SDS011;29105;57.764;40.952;2023-12-28T09:32:56;25.63;;;7.95;;
43509;SDS011;29105;57.764;40.952;2023-12-28T09:35:22;15.77;;;5.15;;
43509;SDS011;29105;57.764;40.952;2023-12-28T09:37:48;29.80;;;8.48;;
43509;SDS011;29105;57.764;40.952;2023-12-28T09:40:14;23.65;;;7.90;;
43509;SDS011;29105;57.764;40.952;2023-12-28T09:42:48;15.00;;;6.30;;
43509;SDS011;29105;57.764;40.952;2023-12-28T09:45:17;21.45;;;7.20;;
43509;SDS011;29105;57.764;40.952;2023-12-28T09:47:43;24.23;;;7.60;;
43509;SDS011;29105;57.764;40.952;2023-12-28T09:50:09;14.38;;;6.75;;
43509;SDS011;29105;57.764;40.952;2023-12-28T09:52:36;26.33;;;9.93;;
43509;SDS011;29105;57.764;40.952;2023-12-28T09:55:02;18.33;;;6.75;;
43509;SDS011;29105;57.764;40.952;2023-12-28T09:57:29;23.88;;;7.93;;
43509;SDS011;29105;57.764;40.952;2023-12-28T09:59:55;16.08;;;6.70;;
43509;SDS011;29105;57.764;40.952;2023-12-28T10:02:23;21.95;;;7.72;;
43509;SDS011;29105;57.764;40.952;2023-12-28T10:04:48;18.60;;;7.22;;
43509;SDS011;29105;57.764;40.952;2023-12-28T10:07:14;21.35;;;7.18;;
43509;SDS011;29105;57.764;40.952;2023-12-28T10:09:40;19.92;;;7.80;;
43509;SDS011;29105;57.764;40.952;2023-12-28T10:12:06;15.20;;;6.70;;
43509;SDS011;29105;57.764;40.952;2023-12-28T10:14:32;11.48;;;4.93;;
43509;SDS011;29105;57.764;40.952;2023-12-28T10:16:57;18.67;;;6.00;;
43509;SDS011;29105;57.764;40.952;2023-12-28T10:19:23;21.98;;;8.60;;
43509;SDS011;29105;57.764;40.952;2023-12-28T10:21:49;13.55;;;4.47;;
43509;SDS011;29105;57.764;40.952;2023-12-28T10:24:15;17.10;;;7.18;;
43509;SDS011;29105;57.764;40.952;2023-12-28T10:26:41;22.92;;;7.93;;
43509;SDS011;29105;57.764;40.952;2023-12-28T10:29:07;24.25;;;8.38;;
43509;SDS011;29105;57.764;40.952;2023-12-28T10:31:33;18.50;;;7.10;;
43509;SDS011;29105;57.764;40.952;2023-12-28T10:34:00;17.73;;;5.75;;
43509;SDS011;29105;57.764;40.952;2023-12-28T10:36:28;18.90;;;7.43;;
43509;SDS011;29105;57.764;40.952;2023-12-28T10:38:54;15.00;;;5.60;;
43509;SDS011;29105;57.764;40.952;2023-12-28T10:41:19;9.07;;;3.42;;
43509;SDS011;29105;57.764;40.952;2023-12-28T10:43:46;15.88;;;6.40;;
43509;SDS011;29105;57.764;40.952;2023-12-28T10:46:30;16.25;;;5.80;;
43509;SDS011;29105;57.764;40.952;2023-12-28T10:49:05;16.40;;;6.10;;
43509;SDS011;29105;57.764;40.952;2023-12-28T10:51:34;15.65;;;5.90;;
43509;SDS011;29105;57.764;40.952;2023-12-28T10:56:51;20.58;;;5.70;;
43509;SDS011;29105;57.764;40.952;2023-12-28T10:59:24;10.82;;;5.47;;
43509;SDS011;29105;57.764;40.952;2023-12-28T11:01:58;16.30;;;6.60;;
43509;SDS011;29105;57.764;40.952;2023-12-28T11:04:44;13.93;;;4.97;;
43509;SDS011;29105;57.764;40.952;2023-12-28T11:07:14;22.77;;;8.30;;
43509;SDS011;29105;57.764;40.952;2023-12-28T11:09:43;24.25;;;8.77;;
43509;SDS011;29105;57.764;40.952;2023-12-28T11:12:09;14.88;;;5.88;;
43509;SDS011;29105;57.764;40.952;2023-12-28T11:14:39;15.35;;;6.82;;
43509;SDS011;29105;57.764;40.952;2023-12-28T11:17:05;18.05;;;6.93;;
43509;SDS011;29105;57.764;40.952;2023-12-28T11:19:32;10.32;;;4.40;;
43509;SDS011;29105;57.764;40.952;2023-12-28T11:21:58;13.77;;;6.00;;
43509;SDS011;29105;57.764;40.952;2023-12-28T11:24:27;13.70;;;5.78;;
43509;SDS011;29105;57.764;40.952;2023-12-28T11:26:53;18.17;;;7.03;;
43509;SDS011;29105;57.764;40.952;2023-12-28T11:29:20;14.57;;;6.65;;
43509;SDS011;29105;57.764;40.952;2023-12-28T11:31:52;14.35;;;5.82;;
43509;SDS011;29105;57.764;40.952;2023-12-28T11:34:24;16.35;;;3.38;;
43509;SDS011;29105;57.764;40.952;2023-12-28T11:36:54;14.70;;;5.63;;
43509;SDS011;29105;57.764;40.952;2023-12-28T11:39:34;10.35;;;4.75;;
43509;SDS011;29105;57.764;40.952;2023-12-28T11:42:06;8.23;;;3.83;;
43509;SDS011;29105;57.764;40.952;2023-12-28T11:44:42;11.15;;;4.97;;
43509;SDS011;29105;57.764;40.952;2023-12-28T11:47:22;12.07;;;3.97;;
43509;SDS011;29105;57.764;40.952;2023-12-28T11:49:49;10.77;;;3.15;;
43509;SDS011;29105;57.764;40.952;2023-12-28T11:52:27;9.90;;;3.70;;
43509;SDS011;29105;57.764;40.952;2023-12-28T11:54:54;7.95;;;3.63;;
43509;SDS011;29105;57.764;40.952;2023-12-28T11:57:21;10.73;;;4.90;;
43509;SDS011;29105;57.764;40.952;2023-12-28T11:59:55;11.95;;;4.15;;
43509;SDS011;29105;57.764;40.952;2023-12-28T12:02:22;13.82;;;5.10;;
43509;SDS011;29105;57.764;40.952;2023-12-28T12:04:47;8.98;;;4.60;;
43509;SDS011;29105;57.764;40.952;2023-12-28T12:07:13;6.78;;;2.90;;
43509;SDS011;29105;57.764;40.952;2023-12-28T12:09:39;10.13;;;4.43;;
43509;SDS011;29105;57.764;40.952;2023-12-28T12:12:06;9.70;;;4.97;;
43509;SDS011;29105;57.764;40.952;2023-12-28T12:14:32;8.02;;;3.67;;
43509;SDS011;29105;57.764;40.952;2023-12-28T12:16:59;12.77;;;3.92;;
43509;SDS011;29105;57.764;40.952;2023-12-28T12:19:26;14.50;;;5.10;;
43509;SDS011;29105;57.764;40.952;2023-12-28T12:21:52;9.63;;;3.75;;
43509;SDS011;29105;57.764;40.952;2023-12-28T12:24:18;9.57;;;3.80;;
43509;SDS011;29105;57.764;40.952;2023-12-28T12:26:48;8.93;;;4.05;;
43509;SDS011;29105;57.764;40.952;2023-12-28T12:29:15;9.02;;;4.40;;
43509;SDS011;29105;57.764;40.952;2023-12-28T12:31:41;8.52;;;4.07;;
43509;SDS011;29105;57.764;40.952;2023-12-28T12:34:10;9.00;;;3.28;;
43509;SDS011;29105;57.764;40.952;2023-12-28T12:36:37;4.10;;;2.70;;
43509;SDS011;29105;57.764;40.952;2023-12-28T12:39:03;6.85;;;2.88;;
43509;SDS011;29105;57.764;40.952;2023-12-28T12:41:32;8.07;;;3.25;;
43509;SDS011;29105;57.764;40.952;2023-12-28T12:43:58;9.05;;;3.17;;
43509;SDS011;29105;57.764;40.952;2023-12-28T12:46:25;6.18;;;3.15;;
43509;SDS011;29105;57.764;40.952;2023-12-28T12:48:54;4.38;;;2.85;;
43509;SDS011;29105;57.764;40.952;2023-12-28T12:51:23;6.95;;;3.38;;
43509;SDS011;29105;57.764;40.952;2023-12-28T12:53:56;14.10;;;3.22;;
43509;SDS011;29105;57.764;40.952;2023-12-28T12:56:25;9.88;;;2.83;;
43509;SDS011;29105;57.764;40.952;2023-12-28T12:58:51;6.15;;;3.47;;
43509;SDS011;29105;57.764;40.952;2023-12-28T13:01:18;4.55;;;2.53;;
43509;SDS011;29105;57.764;40.952;2023-12-28T13:03:45;5.28;;;2.13;;
43509;SDS011;29105;57.764;40.952;2023-12-28T13:06:11;6.32;;;3.13;;
43509;SDS011;29105;57.764;40.952;2023-12-28T13:08:36;5.53;;;2.88;;
43509;SDS011;29105;57.764;40.952;2023-12-28T13:11:02;9.02;;;3.22;;
43509;SDS011;29105;57.764;40.952;2023-12-28T13:13:28;3.83;;;2.08;;
43509;SDS011;29105;57.764;40.952;2023-12-28T13:15:54;5.55;;;2.28;;
43509;SDS011;29105;57.764;40.952;2023-12-28T13:18:19;3.60;;;1.80;;
43509;SDS011;29105;57.764;40.952;2023-12-28T13:20:45;5.25;;;2.53;;
43509;SDS011;29105;57.764;40.952;2023-12-28T13:23:11;7.72;;;1.83;;
43509;SDS011;29105;57.764;40.952;2023-12-28T13:25:37;5.15;;;2.22;;
43509;SDS011;29105;57.764;40.952;2023-12-28T13:28:03;3.85;;;2.20;;
43509;SDS011;29105;57.764;40.952;2023-12-28T13:30:29;8.00;;;2.20;;
43509;SDS011;29105;57.764;40.952;2023-12-28T13:32:55;3.63;;;2.20;;
43509;SDS011;29105;57.764;40.952;2023-12-28T13:35:24;4.82;;;2.45;;
43509;SDS011;29105;57.764;40.952;2023-12-28T13:37:49;3.08;;;1.75;;
43509;SDS011;29105;57.764;40.952;2023-12-28T13:40:15;1.38;;;0.88;;
43509;SDS011;29105;57.764;40.952;2023-12-28T13:42:41;6.97;;;2.25;;
43509;SDS011;29105;57.764;40.952;2023-12-28T13:45:07;4.22;;;2.25;;
43509;SDS011;29105;57.764;40.952;2023-12-28T13:47:33;2.22;;;1.02;;
43509;SDS011;29105;57.764;40.952;2023-12-28T13:49:59;3.65;;;1.90;;
43509;SDS011;29105;57.764;40.952;2023-12-28T13:52:25;8.20;;;2.38;;
43509;SDS011;29105;57.764;40.952;2023-12-28T13:54:50;1.42;;;0.85;;
43509;SDS011;29105;57.764;40.952;2023-12-28T13:57:16;1.10;;;0.95;;
43509;SDS011;29105;57.764;40.952;2023-12-28T13:59:42;2.53;;;1.40;;
43509;SDS011;29105;57.764;40.952;2023-12-28T14:02:08;3.53;;;1.40;;
43509;SDS011;29105;57.764;40.952;2023-12-28T14:04:33;3.80;;;1.80;;
43509;SDS011;29105;57.764;40.952;2023-12-28T14:06:59;3.40;;;2.15;;
43509;SDS011;29105;57.764;40.952;2023-12-28T14:09:25;3.63;;;1.58;;
43509;SDS011;29105;57.764;40.952;2023-12-28T14:11:50;2.28;;;1.02;;
43509;SDS011;29105;57.764;40.952;2023-12-28T14:14:16;0.50;;;0.50;;
43509;SDS011;29105;57.764;40.952;2023-12-28T14:16:42;2.55;;;1.70;;
43509;SDS011;29105;57.764;40.952;2023-12-28T14:19:08;2.70;;;1.55;;
43509;SDS011;29105;57.764;40.952;2023-12-28T14:21:35;6.18;;;1.30;;
43509;SDS011;29105;57.764;40.952;2023-12-28T14:24:02;2.78;;;1.83;;